Time,TemperatureF,DewpointF,PressureIn,WindDirection,WindDirectionDegrees,WindSpeedMPH,WindSpeedGustMPH,Humidity,HourlyPrecipIn,Conditions,Clouds,dailyrainin,SolarRadiationWatts/m^2,SoftwareType,DateUTC
2013-04-05 00:12:00,50.0,26.0,30.00,SE,145,15.0,23.0,39,-99.99,,,-99.99,1.000000,,2013-04-05 07:12:00,
2013-04-05 00:22:00,50.0,26.0,30.00,SSE,155,15.0,19.0,39,-99.99,,,-99.99,0.000000,,2013-04-05 07:22:00,
2013-04-05 00:32:00,50.0,27.0,30.00,SSE,157,14.0,23.0,41,-99.99,,,-99.99,0.000000,,2013-04-05 07:32:00,
2013-04-05 00:42:00,53.0,29.0,30.01,SSE,149,18.0,27.0,40,-99.99,,,-99.99,0.000000,,2013-04-05 07:42:00,
2013-04-05 00:52:00,53.0,29.0,30.01,SSE,149,18.0,27.0,40,-99.99,,,-99.99,0.000000,,2013-04-05 07:52:00,
2013-04-05 01:00:00,48.0,37.0,30.03,WSW,248,17.0,25.0,66,-99.99,,,-99.99,0.000000,,2013-04-05 08:00:00,
2013-04-05 01:02:00,54.0,30.0,30.00,SSE,147,16.0,26.0,39,-99.99,,,-99.99,1.000000,,2013-04-05 08:02:00,
2013-04-05 01:12:00,54.0,30.0,30.00,SSE,147,16.0,26.0,39,-99.99,,,-99.99,1.000000,,2013-04-05 08:12:00,
2013-04-05 01:22:00,52.0,32.0,30.02,SW,229,15.0,22.0,45,-99.99,,,-99.99,0.000000,,2013-04-05 08:22:00,
2013-04-05 01:32:00,49.0,37.0,30.03,WSW,245,18.0,26.0,62,-99.99,,,-99.99,0.000000,,2013-04-05 08:32:00,
2013-04-05 01:42:00,48.0,37.0,30.03,WSW,248,17.0,25.0,66,-99.99,,,-99.99,0.000000,,2013-04-05 08:42:00,
2013-04-05 01:52:00,48.0,37.0,30.03,WSW,248,17.0,25.0,66,-99.99,,,-99.99,0.000000,,2013-04-05 08:52:00,
2013-04-05 02:53:00,46.0,38.0,30.06,WSW,246,11.0,14.0,72,-99.99,,,-99.99,0.000000,,2013-04-05 09:53:00,
2013-04-05 03:02:00,46.0,38.0,30.05,WSW,252,12.0,18.0,74,-99.99,,,-99.99,0.000000,,2013-04-05 10:02:00,
2013-04-05 03:12:00,45.0,38.0,30.05,West,269,11.0,14.0,77,-99.99,,,-99.99,0.000000,,2013-04-05 10:12:00,
2013-04-05 03:23:00,44.0,38.0,30.05,West,274,11.0,16.0,78,-99.99,,,-99.99,0.000000,,2013-04-05 10:23:00,
2013-04-05 03:32:00,44.0,37.0,30.05,West,267,12.0,15.0,76,-99.99,,,-99.99,0.000000,,2013-04-05 10:32:00,
2013-04-05 03:42:00,44.0,37.0,30.05,West,261,11.0,14.0,77,-99.99,,,-99.99,0.000000,,2013-04-05 10:42:00,
2013-04-05 03:52:00,43.0,36.0,30.05,WSW,258,13.0,17.0,77,-99.99,,,-99.99,0.000000,,2013-04-05 10:52:00,
2013-04-05 04:02:00,43.0,37.0,30.05,West,263,12.0,15.0,77,-99.99,,,-99.99,0.000000,,2013-04-05 11:02:00,
2013-04-05 04:12:00,44.0,37.0,30.05,WNW,284,13.0,16.0,77,-99.99,,,-99.99,0.000000,,2013-04-05 11:12:00,
2013-04-05 04:22:00,44.0,37.0,30.05,WNW,284,13.0,16.0,77,-99.99,,,-99.99,0.000000,,2013-04-05 11:22:00,
2013-04-05 04:32:00,43.0,37.0,30.07,NW,308,10.0,13.0,78,-99.99,,,-99.99,0.000000,,2013-04-05 11:32:00,
2013-04-05 04:42:00,43.0,37.0,30.07,NNW,333,8.0,11.0,79,-99.99,,,-99.99,0.000000,,2013-04-05 11:42:00,
2013-04-05 04:52:00,43.0,37.0,30.07,NNW,333,8.0,11.0,79,-99.99,,,-99.99,0.000000,,2013-04-05 11:52:00,
2013-04-05 05:02:00,43.0,37.0,30.08,West,280,4.0,6.0,80,-99.99,,,-99.99,0.000000,,2013-04-05 12:02:00,
2013-04-05 05:12:00,43.0,37.0,-100.00,West,280,4.0,6.0,80,-99.99,,,-99.99,0.000000,,2013-04-05 12:12:00,
2013-04-05 05:22:00,41.0,37.0,30.09,West,280,10.0,15.0,87,-99.99,,,-99.99,0.000000,,2013-04-05 12:22:00,
2013-04-05 05:32:00,41.0,37.0,30.09,West,280,10.0,15.0,87,-99.99,,,-99.99,0.000000,,2013-04-05 12:32:00,
2013-04-05 05:40:00,40.0,38.0,30.07,SW,221,3.0,4.0,92,-99.99,,,-99.99,0.000000,,2013-04-05 12:40:00,
2013-04-05 05:42:00,40.0,38.0,30.08,ENE,71,1.0,5.0,91,-99.99,,,-99.99,0.000000,,2013-04-05 12:42:00,
2013-04-05 05:52:00,40.0,38.0,30.08,ENE,71,1.0,5.0,91,-99.99,,,-99.99,0.000000,,2013-04-05 12:52:00,
2013-04-05 06:02:00,40.0,38.0,30.08,SW,228,0.0,2.0,91,-99.99,,,-99.99,0.000000,,2013-04-05 13:02:00,
2013-04-05 06:12:00,40.0,38.0,30.07,SW,222,2.0,4.0,92,-99.99,,,-99.99,0.000000,,2013-04-05 13:12:00,
2013-04-05 06:22:00,40.0,38.0,30.07,SW,221,3.0,4.0,92,-99.99,,,-99.99,0.000000,,2013-04-05 13:22:00,
2013-04-05 06:32:00,40.0,38.0,30.07,SW,221,3.0,4.0,92,-99.99,,,-99.99,0.000000,,2013-04-05 13:32:00,
2013-04-05 07:00:00,40.0,37.0,30.09,WNW,284,1.0,2.0,89,-99.99,,,-99.99,77.000000,,2013-04-05 14:00:00,
2013-04-05 07:02:00,39.0,37.0,30.08,NNE,16,0.0,3.0,92,-99.99,,,-99.99,7.000000,,2013-04-05 14:02:00,
2013-04-05 07:12:00,39.0,37.0,30.08,North,0,2.0,4.0,91,-99.99,,,-99.99,7.000000,,2013-04-05 14:12:00,
2013-04-05 07:22:00,39.0,37.0,30.09,NW,325,1.0,3.0,91,-99.99,,,-99.99,14.000000,,2013-04-05 14:22:00,
2013-04-05 07:36:00,39.0,37.0,30.09,NW,318,2.0,5.0,90,-99.99,,,-99.99,31.000000,,2013-04-05 14:36:00,
2013-04-05 07:42:00,40.0,37.0,30.09,WNW,284,1.0,2.0,89,-99.99,,,-99.99,77.000000,,2013-04-05 14:42:00,
2013-04-05 07:52:00,40.0,37.0,30.09,WNW,284,1.0,2.0,89,-99.99,,,-99.99,77.000000,,2013-04-05 14:52:00,
2013-04-05 08:12:00,41.0,38.0,30.10,West,276,4.0,6.0,89,-99.99,,,-99.99,76.000000,,2013-04-05 15:12:00,
2013-04-05 08:23:00,41.0,38.0,30.10,West,276,4.0,6.0,89,-99.99,,,-99.99,76.000000,,2013-04-05 15:23:00,
2013-04-05 08:30:00,44.0,39.0,30.12,WNW,283,6.0,8.0,82,-99.99,,,-99.99,252.000000,,2013-04-05 15:30:00,
2013-04-05 08:33:00,41.0,38.0,30.11,West,274,5.0,8.0,89,-99.99,,,-99.99,68.000000,,2013-04-05 15:33:00,
2013-04-05 08:42:00,41.0,38.0,30.11,WNW,296,2.0,5.0,90,-99.99,,,-99.99,103.000000,,2013-04-05 15:42:00,
2013-04-05 08:53:00,42.0,39.0,30.12,NNW,340,2.0,5.0,89,-99.99,,,-99.99,359.000000,,2013-04-05 15:53:00,
2013-04-05 09:02:00,44.0,40.0,30.12,WNW,284,4.0,7.0,85,-99.99,,,-99.99,369.000000,,2013-04-05 16:02:00,
2013-04-05 09:13:00,44.0,39.0,30.12,WNW,283,6.0,8.0,82,-99.99,,,-99.99,252.000000,,2013-04-05 16:13:00,
2013-04-05 09:20:00,48.0,33.0,30.12,NW,309,8.0,14.0,55,-99.99,,,-99.99,682.000000,,2013-04-05 16:20:00,
2013-04-05 09:23:00,44.0,39.0,30.12,WNW,283,6.0,8.0,82,-99.99,,,-99.99,252.000000,,2013-04-05 16:23:00,
2013-04-05 09:52:00,48.0,34.0,30.12,NW,313,6.0,11.0,58,-99.99,,,-99.99,596.000000,,2013-04-05 16:52:00,
2013-04-05 10:00:00,49.0,29.0,30.12,West,281,10.0,16.0,46,-99.99,,,-99.99,538.000000,,2013-04-05 17:00:00,
2013-04-05 10:03:00,48.0,33.0,30.12,NW,309,8.0,14.0,55,-99.99,,,-99.99,682.000000,,2013-04-05 17:03:00,
2013-04-05 10:12:00,48.0,33.0,30.12,NW,309,8.0,14.0,55,-99.99,,,-99.99,682.000000,,2013-04-05 17:12:00,
2013-04-05 10:45:00,49.0,29.0,30.12,West,281,10.0,16.0,46,-99.99,,,-99.99,538.000000,,2013-04-05 17:45:00,
2013-04-05 10:52:00,49.0,29.0,30.12,West,281,10.0,16.0,46,-99.99,,,-99.99,538.000000,,2013-04-05 17:52:00,
2013-04-05 11:00:00,50.0,29.0,30.12,WNW,301,8.0,14.0,43,-99.99,,,-99.99,878.000000,,2013-04-05 18:00:00,
2013-04-05 11:22:00,50.0,30.0,30.12,WNW,300,10.0,18.0,45,-99.99,,,-99.99,773.000000,,2013-04-05 18:22:00,
2013-04-05 11:32:00,49.0,28.0,30.12,WNW,300,7.0,13.0,43,-99.99,,,-99.99,431.000000,,2013-04-05 18:32:00,
2013-04-05 11:42:00,50.0,29.0,30.12,WNW,301,8.0,14.0,43,-99.99,,,-99.99,878.000000,,2013-04-05 18:42:00,
2013-04-05 11:52:00,50.0,29.0,30.12,WNW,301,8.0,14.0,43,-99.99,,,-99.99,878.000000,,2013-04-05 18:52:00,
2013-04-05 12:22:00,52.0,28.0,30.12,NW,320,7.0,13.0,39,-99.99,,,-99.99,857.000000,,2013-04-05 19:22:00,
2013-04-05 12:33:00,51.0,29.0,30.12,North,358,8.0,12.0,42,-99.99,,,-99.99,1045.000000,,2013-04-05 19:33:00,
2013-04-05 12:42:00,51.0,28.0,30.12,North,3,7.0,13.0,40,-99.99,,,-99.99,995.000000,,2013-04-05 19:42:00,
2013-04-05 12:52:00,51.0,28.0,30.12,North,3,7.0,13.0,40,-99.99,,,-99.99,995.000000,,2013-04-05 19:52:00,
2013-04-05 13:02:00,51.0,27.0,30.11,NNW,330,5.0,12.0,38,-99.99,,,-99.99,1005.000000,,2013-04-05 20:02:00,
2013-04-05 13:11:00,52.0,25.0,30.11,NNW,336,6.0,12.0,34,-99.99,,,-99.99,993.000000,,2013-04-05 20:11:00,
2013-04-05 13:22:00,53.0,25.0,30.11,NW,311,5.0,12.0,33,-99.99,,,-99.99,939.000000,,2013-04-05 20:22:00,
2013-04-05 13:32:00,54.0,25.0,30.11,NNW,327,8.0,14.0,33,-99.99,,,-99.99,1029.000000,,2013-04-05 20:32:00,
2013-04-05 13:42:00,54.0,24.0,30.11,NW,320,6.0,13.0,31,-99.99,,,-99.99,852.000000,,2013-04-05 20:42:00,
2013-04-05 13:52:00,54.0,24.0,30.11,NW,320,6.0,13.0,31,-99.99,,,-99.99,852.000000,,2013-04-05 20:52:00,
2013-04-05 14:02:00,54.0,24.0,30.10,WSW,252,5.0,12.0,30,-99.99,,,-99.99,809.000000,,2013-04-05 21:02:00,
2013-04-05 14:12:00,55.0,25.0,30.10,NW,319,7.0,14.0,31,-99.99,,,-99.99,744.000000,,2013-04-05 21:12:00,
2013-04-05 14:23:00,53.0,23.0,30.10,NNW,330,7.0,14.0,31,-99.99,,,-99.99,697.000000,,2013-04-05 21:23:00,
2013-04-05 14:33:00,54.0,22.0,30.09,NW,319,6.0,15.0,29,-99.99,,,-99.99,836.000000,,2013-04-05 21:33:00,
2013-04-05 14:42:00,55.0,23.0,30.09,WNW,294,4.0,14.0,28,-99.99,,,-99.99,965.000000,,2013-04-05 21:42:00,
2013-04-05 14:53:00,56.0,23.0,30.08,NNW,330,7.0,11.0,28,-99.99,,,-99.99,921.000000,,2013-04-05 21:53:00,
2013-04-05 15:03:00,55.0,23.0,30.08,NNW,342,6.0,12.0,28,-99.99,,,-99.99,1002.000000,,2013-04-05 22:03:00,
2013-04-05 15:13:00,56.0,23.0,30.08,NW,318,5.0,9.0,27,-99.99,,,-99.99,922.000000,,2013-04-05 22:13:00,
2013-04-05 15:22:00,57.0,20.0,30.07,West,278,5.0,11.0,24,-99.99,,,-99.99,882.000000,,2013-04-05 22:22:00,
2013-04-05 15:33:00,57.0,16.0,30.07,WNW,290,8.0,15.0,20,-99.99,,,-99.99,848.000000,,2013-04-05 22:33:00,
2013-04-05 15:40:00,58.0,20.0,30.05,NW,311,7.0,13.0,23,-99.99,,,-99.99,718.000000,,2013-04-05 22:40:00,
2013-04-05 15:42:00,57.0,17.0,30.06,WNW,283,7.0,17.0,21,-99.99,,,-99.99,820.000000,,2013-04-05 22:42:00,
2013-04-05 15:52:00,57.0,19.0,30.06,NW,310,7.0,14.0,22,-99.99,,,-99.99,794.000000,,2013-04-05 22:52:00,
2013-04-05 16:02:00,57.0,20.0,30.06,West,278,6.0,12.0,23,-99.99,,,-99.99,745.000000,,2013-04-05 23:02:00,
2013-04-05 16:12:00,58.0,20.0,30.05,NW,311,7.0,13.0,23,-99.99,,,-99.99,718.000000,,2013-04-05 23:12:00,
2013-04-05 16:22:00,58.0,20.0,30.05,NW,311,7.0,13.0,23,-99.99,,,-99.99,718.000000,,2013-04-05 23:22:00,
2013-04-05 16:32:00,58.0,20.0,30.05,NW,311,7.0,13.0,23,-99.99,,,-99.99,718.000000,,2013-04-05 23:32:00,
2013-04-05 17:02:00,57.0,20.0,30.05,SW,235,8.0,13.0,23,-99.99,,,-99.99,442.000000,,2013-04-06 00:02:00,
2013-04-05 17:12:00,57.0,20.0,30.05,SW,235,8.0,13.0,23,-99.99,,,-99.99,442.000000,,2013-04-06 00:12:00,
2013-04-05 17:22:00,58.0,19.0,30.05,SW,222,7.0,11.0,22,-99.99,,,-99.99,474.000000,,2013-04-06 00:22:00,
2013-04-05 17:32:00,58.0,19.0,30.05,SW,222,7.0,11.0,22,-99.99,,,-99.99,474.000000,,2013-04-06 00:32:00,
2013-04-05 17:42:00,58.0,18.0,30.05,West,275,9.0,15.0,21,-99.99,,,-99.99,395.000000,,2013-04-06 00:42:00,
2013-04-05 17:52:00,57.0,19.0,30.06,West,277,5.0,11.0,22,-99.99,,,-99.99,360.000000,,2013-04-06 00:52:00,
2013-04-05 18:02:00,58.0,20.0,30.06,WNW,282,5.0,13.0,23,-99.99,,,-99.99,329.000000,,2013-04-06 01:02:00,
2013-04-05 18:12:00,57.0,19.0,30.06,WSW,240,8.0,12.0,22,-99.99,,,-99.99,305.000000,,2013-04-06 01:12:00,
2013-04-05 18:22:00,57.0,20.0,30.06,West,268,9.0,13.0,23,-99.99,,,-99.99,268.000000,,2013-04-06 01:22:00,
2013-04-05 18:30:00,56.0,21.0,30.06,WSW,257,7.0,9.0,25,-99.99,,,-99.99,88.000000,,2013-04-06 01:30:00,
2013-04-05 18:32:00,57.0,20.0,30.06,WSW,246,6.0,9.0,23,-99.99,,,-99.99,246.000000,,2013-04-06 01:32:00,
2013-04-05 18:42:00,57.0,21.0,30.06,West,263,10.0,13.0,25,-99.99,,,-99.99,187.000000,,2013-04-06 01:42:00,
2013-04-05 18:52:00,57.0,21.0,30.06,West,263,10.0,13.0,25,-99.99,,,-99.99,187.000000,,2013-04-06 01:52:00,
2013-04-05 19:02:00,56.0,21.0,30.06,WSW,257,7.0,9.0,25,-99.99,,,-99.99,88.000000,,2013-04-06 02:02:00,
2013-04-05 19:12:00,56.0,21.0,30.06,WSW,257,7.0,9.0,25,-99.99,,,-99.99,88.000000,,2013-04-06 02:12:00,
2013-04-05 19:22:00,56.0,21.0,30.06,WSW,257,7.0,9.0,25,-99.99,,,-99.99,88.000000,,2013-04-06 02:22:00,
2013-04-05 19:30:00,52.0,25.0,30.06,SE,142,1.0,3.0,34,-99.99,,,-99.99,1.000000,,2013-04-06 02:30:00,
2013-04-05 19:52:00,54.0,21.0,30.06,West,281,0.0,2.0,28,-99.99,,,-99.99,7.000000,,2013-04-06 02:52:00,
2013-04-05 20:02:00,52.0,25.0,30.06,SE,142,1.0,3.0,34,-99.99,,,-99.99,1.000000,,2013-04-06 03:02:00,
2013-04-05 20:12:00,52.0,25.0,30.06,SE,142,1.0,3.0,34,-99.99,,,-99.99,1.000000,,2013-04-06 03:12:00,
2013-04-05 20:22:00,52.0,25.0,30.06,SE,142,1.0,3.0,34,-99.99,,,-99.99,1.000000,,2013-04-06 03:22:00,
2013-04-05 20:30:00,50.0,28.0,30.07,WNW,288,2.0,3.0,43,-99.99,,,-99.99,1.000000,,2013-04-06 03:30:00,
2013-04-05 20:53:00,50.0,28.0,30.06,North,-999,0.0,0.0,43,-99.99,,,-99.99,1.000000,,2013-04-06 03:53:00,
2013-04-05 21:03:00,50.0,28.0,30.07,North,-999,0.0,0.0,42,-99.99,,,-99.99,1.000000,,2013-04-06 04:03:00,
2013-04-05 21:13:00,50.0,28.0,30.07,WNW,288,2.0,3.0,43,-99.99,,,-99.99,1.000000,,2013-04-06 04:13:00,
2013-04-05 21:23:00,50.0,28.0,30.07,WNW,288,2.0,3.0,43,-99.99,,,-99.99,1.000000,,2013-04-06 04:23:00,
2013-04-05 21:52:00,46.0,27.0,30.08,SE,145,5.0,7.0,47,-99.99,,,-99.99,0.000000,,2013-04-06 04:52:00,
2013-04-05 22:02:00,45.0,27.0,30.08,SSE,153,5.0,8.0,48,-99.99,,,-99.99,0.000000,,2013-04-06 05:02:00,
2013-04-05 22:12:00,45.0,27.0,30.08,SSE,153,5.0,8.0,48,-99.99,,,-99.99,0.000000,,2013-04-06 05:12:00,
2013-04-05 22:22:00,43.0,27.0,30.09,SE,144,6.0,7.0,52,-99.99,,,-99.99,0.000000,,2013-04-06 05:22:00,
2013-04-05 22:32:00,43.0,28.0,30.09,SE,139,7.0,9.0,55,-99.99,,,-99.99,0.000000,,2013-04-06 05:32:00,
2013-04-05 22:40:00,41.0,26.0,30.08,SSE,162,5.0,9.0,56,-99.99,,,-99.99,0.000000,,2013-04-06 05:40:00,
2013-04-05 22:42:00,43.0,28.0,30.09,SE,136,8.0,9.0,56,-99.99,,,-99.99,0.000000,,2013-04-06 05:42:00,
2013-04-05 22:51:00,43.0,26.0,30.09,SSE,152,8.0,11.0,50,-99.99,,,-99.99,1.000000,,2013-04-06 05:51:00,
2013-04-05 23:02:00,43.0,26.0,30.08,SSE,149,6.0,8.0,52,-99.99,,,-99.99,0.000000,,2013-04-06 06:02:00,
2013-04-05 23:12:00,41.0,27.0,30.08,SSE,156,6.0,9.0,57,-99.99,,,-99.99,0.000000,,2013-04-06 06:12:00,
2013-04-05 23:22:00,41.0,27.0,30.08,SSE,156,6.0,9.0,57,-99.99,,,-99.99,0.000000,,2013-04-06 06:22:00,
2013-04-05 23:32:00,41.0,26.0,30.08,SSE,162,5.0,9.0,56,-99.99,,,-99.99,0.000000,,2013-04-06 06:32:00,
2013-04-05 23:52:00,39.0,26.0,30.08,South,170,2.0,7.0,59,-99.99,,,-99.99,0.000000,,2013-04-06 06:52:00,